createdAt,value
2023-03-29T00:03:35.211Z,541.8227424749164
2023-03-29T00:09:55.160Z,528.7692307692307
2023-03-29T00:16:16.578Z,519.2976588628762
2023-03-29T00:22:36.133Z,540.7090301003344
2023-03-29T00:31:36.706Z,568.8896321070234
2023-03-29T00:37:57.048Z,569.4816053511705
2023-03-29T00:44:17.985Z,549.304347826087
2023-03-29T00:50:38.308Z,548.4113712374582
2023-03-29T01:07:01.501Z,558.7157190635452
2023-03-29T01:14:53.086Z,558.819397993311
2023-03-29T01:21:13.387Z,574.61872909699
2023-03-29T01:27:32.729Z,579.6354515050167
2023-03-29T01:33:51.669Z,552.3545150501673
2023-03-29T01:40:11.254Z,511.6220735785953
2023-03-29T01:46:31.818Z,493.1471571906354
2023-03-29T01:52:51.679Z,493.8628762541806
2023-03-29T01:59:11.728Z,482.4515050167224
2023-03-29T02:08:24.275Z,473.7123745819398
2023-03-29T02:14:42.688Z,462.19397993311037
2023-03-29T02:21:01.962Z,477.60535117056855
2023-03-29T02:28:07.803Z,488.5652173913044
2023-03-29T02:34:26.851Z,482.9933110367893
2023-03-29T02:40:46.901Z,502.571906354515
2023-03-29T02:47:07.089Z,515.5551839464883
2023-03-29T02:53:25.707Z,563.5016722408027
2023-03-29T03:01:25.493Z,663.5685618729098
2023-03-29T03:13:46.143Z,709.7926421404683
2023-03-29T03:20:06.649Z,734.2642140468228
2023-03-29T03:29:07.489Z,710.2341137123746
2023-03-29T03:37:21.285Z,748.4147157190636
2023-03-29T03:43:39.702Z,778.3344481605351
2023-03-29T03:49:59.286Z,788.314381270903
2023-03-29T04:02:23.786Z,795.7692307692307
2023-03-29T04:12:27.710Z,762.4581939799331
2023-03-29T04:28:40.014Z,718.0602006688963
2023-03-29T04:34:59.881Z,688.4314381270902
2023-03-29T04:44:43.010Z,628.8160535117057
2023-03-29T04:51:52.780Z,604.1638795986622
2023-03-29T05:04:56.518Z,542.5652173913044
2023-03-29T05:11:16.651Z,551.6789297658863
2023-03-29T05:17:36.059Z,520.4816053511705
2023-03-29T05:23:55.665Z,497.31103678929765
2023-03-29T05:30:14.405Z,501.3645484949833
2023-03-29T05:36:35.545Z,473.7993311036789
2023-03-29T05:42:56.927Z,447.3645484949833
2023-03-29T05:49:17.950Z,449.61538461538464
2023-03-29T05:55:39.759Z,430.66889632107024
2023-03-29T06:02:02.150Z,419.10702341137124
2023-03-29T06:08:23.577Z,438.2809364548495
2023-03-29T06:14:45.016Z,421.59866220735785
2023-03-29T06:21:06.809Z,403.561872909699
2023-03-29T06:27:27.981Z,411.17725752508363
2023-03-29T06:33:49.504Z,418.89297658862876
2023-03-29T06:40:10.994Z,408.5785953177257
2023-03-29T06:49:38.868Z,415.81939799331104
2023-03-29T06:56:00.786Z,415.94983277591973
2023-03-29T07:02:23.822Z,408.2909698996655
2023-03-29T07:08:45.576Z,410.9933110367893
2023-03-29T07:15:07.492Z,405.6588628762542
2023-03-29T07:21:29.099Z,411.0
2023-03-29T07:29:20.904Z,404.0133779264214
2023-03-29T07:35:42.654Z,396.314381270903
2023-03-29T07:42:05.064Z,413.8294314381271
2023-03-29T07:53:04.011Z,419.32775919732444
2023-03-29T07:59:26.581Z,430.39464882943145
2023-03-29T08:05:48.161Z,427.7391304347826
2023-03-29T08:12:10.627Z,402.18729096989966
2023-03-29T08:18:34.261Z,423.5652173913044
2023-03-29T08:24:57.610Z,428.53177257525084
2023-03-29T08:31:19.006Z,445.19397993311037
2023-03-29T08:37:40.376Z,494.7123745819398
2023-03-29T08:46:46.537Z,497.98996655518397
2023-03-29T08:58:48.238Z,488.03010033444815
2023-03-29T09:05:09.937Z,493.9933110367893
2023-03-29T09:17:28.905Z,524.8260869565217
2023-03-29T09:23:50.217Z,538.5484949832776
2023-03-29T09:30:11.408Z,547.7892976588629
2023-03-29T09:36:32.581Z,603.2408026755853
2023-03-29T09:42:54.244Z,638.1036789297659
2023-03-29T09:49:17.300Z,658.9498327759197
2023-03-29T09:55:38.799Z,679.0367892976589
2023-03-29T10:07:31.522Z,684.6153846153846
2023-03-29T10:17:07.434Z,707.85618729097
2023-03-29T10:23:28.847Z,709.8026755852843
2023-03-29T10:40:59.354Z,752.2809364548496
2023-03-29T10:57:09.256Z,786.752508361204
2023-03-29T11:03:30.426Z,778.695652173913
2023-03-29T11:09:51.583Z,800.7357859531772
2023-03-29T11:16:13.532Z,820.2374581939799
2023-03-29T11:28:52.078Z,817.2006688963211
2023-03-29T11:35:14.024Z,771.551839464883
2023-03-29T11:43:40.964Z,746.14381270903
2023-03-29T11:59:06.481Z,785.9264214046823
2023-03-29T12:05:28.110Z,814.3311036789298
2023-03-29T12:11:49.576Z,845.5953177257525
2023-03-29T12:18:11.643Z,865.8026755852843
2023-03-29T12:24:33.972Z,842.6822742474916
2023-03-29T12:30:56.170Z,850.4548494983278
2023-03-29T12:46:01.000Z,883.2107023411371
2023-03-29T12:52:23.259Z,889.7257525083612
2023-03-29T12:58:47.396Z,872.8394648829432
2023-03-29T13:05:09.189Z,900.2876254180602
2023-03-29T13:11:31.578Z,906.0836120401337
2023-03-29T13:21:51.017Z,945.3745819397993
2023-03-29T13:28:13.116Z,925.3444816053511
2023-03-29T13:34:36.117Z,942.886287625418
2023-03-29T13:42:35.921Z,942.438127090301
2023-03-29T13:48:58.922Z,903.1605351170568
2023-03-29T13:55:21.900Z,916.9598662207358
2023-03-29T14:03:44.644Z,917.5016722408027
2023-03-29T14:10:07.969Z,875.1939799331103
2023-03-29T14:16:30.666Z,861.0535117056857
2023-03-29T14:27:49.482Z,867.010033444816
2023-03-29T14:55:01.624Z,888.1003344481605
2023-03-29T15:07:33.135Z,854.8795986622074
2023-03-29T15:13:55.547Z,872.5117056856187
2023-03-29T15:20:17.721Z,1006.1036789297659
2023-03-29T15:26:40.245Z,931.581939799331
2023-03-29T15:33:03.648Z,912.0769230769231
2023-03-29T15:39:27.686Z,869.5685618729098
2023-03-29T15:45:51.158Z,818.0668896321071
2023-03-29T15:52:13.056Z,787.7959866220735
2023-03-29T15:58:35.766Z,770.9431438127091
2023-03-29T16:04:57.594Z,785.2207357859531
2023-03-29T16:11:19.757Z,841.2006688963211
2023-03-29T16:17:41.672Z,835.5685618729098
2023-03-29T16:24:03.873Z,836.85618729097
2023-03-29T16:30:25.637Z,845.1872909698997
2023-03-29T16:36:47.354Z,826.0903010033445
2023-03-29T16:52:33.879Z,789.3478260869565
2023-03-29T17:00:25.331Z,783.6454849498327
2023-03-29T17:11:36.824Z,776.4983277591973
2023-03-29T17:19:24.893Z,818.1404682274248
2023-03-29T17:25:46.894Z,803.9732441471572
2023-03-29T17:32:52.445Z,819.5050167224081
2023-03-29T17:47:03.122Z,838.5852842809364
2023-03-29T17:53:22.931Z,882.1839464882943
2023-03-29T17:59:42.514Z,878.5317725752508
2023-03-29T18:12:50.995Z,948.2107023411371
2023-03-29T18:19:10.343Z,1035.2341137123747
2023-03-29T18:31:33.346Z,1083.7391304347825
2023-03-29T18:37:53.016Z,1167.428093645485
2023-03-29T18:46:53.649Z,1119.3110367892978
2023-03-29T18:54:37.091Z,1111.591973244147
2023-03-29T19:01:06.601Z,1159.4214046822742
2023-03-29T19:07:26.460Z,1194.5785953177258
2023-03-29T19:19:16.295Z,1343.8595317725753
2023-03-29T19:25:35.805Z,1236.3979933110368
2023-03-29T19:31:55.820Z,1267.28762541806
2023-03-29T19:44:45.518Z,1240.5819397993312
2023-03-29T19:51:06.569Z,1268.8795986622074
2023-03-29T19:57:26.639Z,1307.772575250836
2023-03-29T20:03:48.250Z,1363.8896321070233
2023-03-29T20:10:08.034Z,1292.4749163879599
2023-03-29T20:19:20.752Z,1275.876254180602
2023-03-29T20:25:42.105Z,1268.3946488294314
2023-03-29T20:32:39.100Z,1211.8896321070233
2023-03-29T20:45:53.519Z,1193.103678929766
2023-03-29T20:52:15.018Z,1230.7090301003345
2023-03-29T21:00:13.510Z,1230.4414715719063
2023-03-29T21:06:33.416Z,1250.0434782608695
2023-03-29T21:12:57.833Z,1241.5284280936455
2023-03-29T21:30:07.503Z,1268.428093645485
2023-03-29T21:36:26.512Z,1244.5819397993312
2023-03-29T21:42:48.806Z,1250.0969899665552
2023-03-29T21:55:25.784Z,1244.6989966555184
2023-03-29T22:01:45.991Z,1248.6053511705686
2023-03-29T22:21:57.353Z,1215.438127090301
2023-03-29T22:28:17.560Z,1178.6521739130435
2023-03-29T22:34:45.287Z,1183.8795986622074
2023-03-29T22:42:14.786Z,1175.438127090301
2023-03-29T22:49:22.213Z,1140.3076923076924
2023-03-29T23:11:40.652Z,1086.2207357859531
2023-03-29T23:22:19.027Z,1029.4916387959865
2023-03-29T23:29:26.367Z,1025.2976588628762
2023-03-29T23:39:46.137Z,1008.2608695652174
2023-03-29T23:47:16.247Z,1013.8494983277592
